createdAt,value
2023-03-01T00:03:31.250Z,4.97
2023-03-01T00:09:24.317Z,5.47
2023-03-01T00:15:14.618Z,5.55
2023-03-01T00:21:01.536Z,5.80
2023-03-01T00:26:48.250Z,5.28
2023-03-01T00:32:35.147Z,5.88
2023-03-01T00:38:22.080Z,6.55
2023-03-01T00:44:09.019Z,5.90
2023-03-01T00:49:55.965Z,6.10
2023-03-01T00:55:42.953Z,7.22
2023-03-01T01:01:31.663Z,6.80
2023-03-01T01:07:21.176Z,6.18
2023-03-01T01:13:07.976Z,6.15
2023-03-01T01:18:54.891Z,4.75
2023-03-01T01:24:41.716Z,5.28
2023-03-01T01:30:28.541Z,5.47
2023-03-01T01:36:15.365Z,5.10
2023-03-01T01:42:02.938Z,5.00
2023-03-01T01:47:49.765Z,4.63
2023-03-01T01:53:37.883Z,4.30
2023-03-01T01:59:26.186Z,5.22
2023-03-01T02:05:21.701Z,5.07
2023-03-01T02:11:09.977Z,5.07
2023-03-01T02:16:56.981Z,5.07
2023-03-01T02:22:46.361Z,5.45
2023-03-01T02:28:35.709Z,3.80
2023-03-01T02:34:27.299Z,2.03
2023-03-01T02:40:19.561Z,2.63
2023-03-01T02:46:14.648Z,2.47
2023-03-01T02:52:23.696Z,1.98
2023-03-01T02:58:11.047Z,1.70
2023-03-01T03:03:58.528Z,2.22
2023-03-01T03:09:45.317Z,2.08
2023-03-01T03:15:37.011Z,1.98
2023-03-01T03:21:23.971Z,1.80
2023-03-01T03:27:11.007Z,1.63
2023-03-01T03:32:59.427Z,2.00
2023-03-01T03:38:50.076Z,1.13
2023-03-01T03:44:37.483Z,1.60
2023-03-01T03:50:24.240Z,2.10
2023-03-01T03:56:17.444Z,1.48
2023-03-01T04:02:04.318Z,1.67
2023-03-01T04:08:02.300Z,1.77
2023-03-01T04:13:49.480Z,1.50
2023-03-01T04:19:37.286Z,1.65
2023-03-01T04:25:24.937Z,1.90
2023-03-01T04:31:16.758Z,1.35
2023-03-01T04:37:03.856Z,1.92
2023-03-01T04:42:50.577Z,1.10
2023-03-01T04:48:39.090Z,1.38
2023-03-01T04:54:25.919Z,0.98
2023-03-01T05:00:23.779Z,0.90
2023-03-01T05:06:11.870Z,1.00
2023-03-01T05:12:01.227Z,1.30
2023-03-01T05:17:48.033Z,1.15
2023-03-01T05:23:35.674Z,1.20
2023-03-01T05:29:26.052Z,1.10
2023-03-01T05:35:17.475Z,0.75
2023-03-01T05:41:04.395Z,1.30
2023-03-01T05:46:51.604Z,1.08
2023-03-01T05:52:38.708Z,1.02
2023-03-01T05:58:25.544Z,0.50
2023-03-01T06:04:14.779Z,0.85
2023-03-01T06:10:02.095Z,0.88
2023-03-01T06:15:49.104Z,1.00
2023-03-01T06:21:35.910Z,1.08
2023-03-01T06:27:22.788Z,1.15
2023-03-01T06:33:09.652Z,1.13
2023-03-01T06:38:56.488Z,1.20
2023-03-01T06:44:43.451Z,1.45
2023-03-01T06:50:30.194Z,1.02
2023-03-01T06:56:16.944Z,1.60
2023-03-01T07:02:03.814Z,1.30
2023-03-01T07:07:50.591Z,1.27
2023-03-01T07:13:39.852Z,1.70
2023-03-01T07:19:26.933Z,11.15
2023-03-01T07:25:13.658Z,17.42
2023-03-01T07:31:03.938Z,1.20
2023-03-01T07:36:51.062Z,1.27
2023-03-01T07:42:38.845Z,1.20
2023-03-01T07:48:25.774Z,1.23
2023-03-01T07:54:23.310Z,1.45
2023-03-01T08:00:12.937Z,2.17
2023-03-01T08:06:05.143Z,1.00
2023-03-01T08:11:51.964Z,1.20
2023-03-01T08:17:38.767Z,1.20
2023-03-01T08:23:28.006Z,1.10
2023-03-01T08:29:14.951Z,1.88
2023-03-01T08:35:01.759Z,1.02
2023-03-01T08:40:48.596Z,1.00
2023-03-01T08:46:42.227Z,1.02
2023-03-01T08:52:29.751Z,1.00
2023-03-01T08:58:16.845Z,1.63
2023-03-01T09:04:04.256Z,1.02
2023-03-01T09:09:54.375Z,1.13
2023-03-01T09:15:41.257Z,1.60
2023-03-01T09:21:39.708Z,1.23
2023-03-01T09:27:27.490Z,1.20
2023-03-01T09:33:15.672Z,0.90
2023-03-01T09:39:03.664Z,0.80
2023-03-01T09:44:59.016Z,1.20
2023-03-01T09:50:47.771Z,0.93
2023-03-01T09:57:05.333Z,1.08
2023-03-01T10:03:14.606Z,1.17
2023-03-01T10:09:10.513Z,0.80
2023-03-01T10:15:31.415Z,0.65
2023-03-01T10:21:20.823Z,0.75
2023-03-01T10:27:16.086Z,0.70
2023-03-01T10:33:04.867Z,0.88
2023-03-01T10:38:58.875Z,0.38
2023-03-01T10:44:50.076Z,0.60
2023-03-01T10:50:40.797Z,0.80
2023-03-01T10:56:28.660Z,0.80
2023-03-01T11:02:27.205Z,0.70
2023-03-01T11:08:14.403Z,0.50
2023-03-01T11:14:29.399Z,0.60
2023-03-01T11:20:33.345Z,0.85
2023-03-01T11:26:20.981Z,0.38
2023-03-01T11:32:11.278Z,0.60
2023-03-01T11:38:21.360Z,0.40
2023-03-01T11:44:17.887Z,0.30
2023-03-01T11:50:43.214Z,0.85
2023-03-01T11:56:36.366Z,0.77
2023-03-01T12:02:41.406Z,0.40
2023-03-01T12:08:36.888Z,0.73
2023-03-01T12:14:50.405Z,0.75
2023-03-01T12:21:10.653Z,0.98
2023-03-01T12:27:17.304Z,0.45
2023-03-01T12:33:13.019Z,0.90
2023-03-01T12:39:14.414Z,0.73
2023-03-01T12:45:10.185Z,0.77
2023-03-01T12:51:02.261Z,1.15
2023-03-01T12:56:53.673Z,0.80
2023-03-01T13:03:01.507Z,0.70
2023-03-01T13:09:04.798Z,1.20
2023-03-01T13:14:55.138Z,1.20
2023-03-01T13:20:44.948Z,1.10
2023-03-01T13:26:31.991Z,0.70
2023-03-01T13:32:43.624Z,1.00
2023-03-01T13:44:37.145Z,0.70
2023-03-01T13:50:28.205Z,1.10
2023-03-01T13:56:17.761Z,0.65
2023-03-01T14:02:13.036Z,0.50
2023-03-01T14:07:59.918Z,0.80
2023-03-01T14:14:03.080Z,0.35
2023-03-01T14:19:57.181Z,0.88
2023-03-01T14:25:52.992Z,0.70
2023-03-01T14:31:52.564Z,0.73
2023-03-01T14:37:41.258Z,0.82
2023-03-01T14:43:29.590Z,0.40
2023-03-01T14:49:18.282Z,0.68
2023-03-01T14:55:19.505Z,0.75
2023-03-01T15:01:09.611Z,0.52
2023-03-01T15:07:06.393Z,0.63
2023-03-01T15:12:54.134Z,0.40
2023-03-01T15:18:55.998Z,0.73
2023-03-01T15:24:48.724Z,0.40
2023-03-01T15:30:39.865Z,0.50
2023-03-01T15:36:45.152Z,0.55
2023-03-01T15:42:31.978Z,0.77
2023-03-01T15:48:21.267Z,0.50
2023-03-01T15:54:19.081Z,0.55
2023-03-01T16:00:13.632Z,0.75
2023-03-01T16:06:02.145Z,0.60
2023-03-01T16:11:49.091Z,0.60
2023-03-01T16:17:36.104Z,1.00
2023-03-01T16:23:26.145Z,0.88
2023-03-01T16:29:13.156Z,1.25
2023-03-01T16:35:00.054Z,1.05
2023-03-01T16:40:52.403Z,1.13
2023-03-01T16:52:29.335Z,0.90
2023-03-01T16:58:17.810Z,1.10
2023-03-01T17:04:05.084Z,1.40
2023-03-01T17:09:51.945Z,1.08
2023-03-01T17:15:44.686Z,1.60
2023-03-01T17:21:32.139Z,1.08
2023-03-01T17:27:19.451Z,2.20
2023-03-01T17:33:06.398Z,1.90
2023-03-01T17:38:53.284Z,1.15
2023-03-01T17:44:41.766Z,1.25
2023-03-01T17:50:29.831Z,1.45
2023-03-01T17:56:16.875Z,2.22
2023-03-01T18:02:03.865Z,5.90
2023-03-01T18:07:52.697Z,1.90
2023-03-01T18:13:40.825Z,2.58
2023-03-01T18:19:29.276Z,13.07
2023-03-01T18:25:17.253Z,1.88
2023-03-01T18:31:08.706Z,0.95
2023-03-01T18:37:09.188Z,1.23
2023-03-01T18:42:56.586Z,1.60
2023-03-01T18:48:47.793Z,1.13
2023-03-01T18:54:36.137Z,1.80
2023-03-01T19:00:23.572Z,1.50
2023-03-01T19:06:10.509Z,1.25
2023-03-01T19:11:58.989Z,1.30
2023-03-01T19:17:45.986Z,1.15
2023-03-01T19:23:36.945Z,1.48
2023-03-01T19:29:23.890Z,1.50
2023-03-01T19:35:10.880Z,1.75
2023-03-01T19:40:58.394Z,1.60
2023-03-01T19:46:45.070Z,3.72
2023-03-01T19:52:31.760Z,1.58
2023-03-01T19:58:19.288Z,1.90
2023-03-01T20:04:06.614Z,1.48
2023-03-01T20:09:53.474Z,1.77
2023-03-01T20:15:44.176Z,1.35
2023-03-01T20:21:31.438Z,8.43
2023-03-01T20:27:18.336Z,1.35
2023-03-01T20:33:11.408Z,1.35
2023-03-01T20:38:58.514Z,1.23
2023-03-01T20:44:45.948Z,1.63
2023-03-01T20:50:32.899Z,1.15
2023-03-01T20:56:25.114Z,0.93
2023-03-01T21:02:24.318Z,0.68
2023-03-01T21:08:12.022Z,2.47
2023-03-01T21:13:59.112Z,1.92
2023-03-01T21:19:46.173Z,1.38
2023-03-01T21:25:35.084Z,1.65
2023-03-01T21:31:25.143Z,1.10
2023-03-01T21:37:12.288Z,0.93
2023-03-01T21:42:59.893Z,1.10
2023-03-01T21:48:48.426Z,1.05
2023-03-01T21:54:35.366Z,1.17
2023-03-01T22:00:29.566Z,2.20
2023-03-01T22:06:26.832Z,1.52
2023-03-01T22:12:21.639Z,1.42
2023-03-01T22:18:09.295Z,1.20
2023-03-01T22:23:56.378Z,1.40
2023-03-01T22:29:43.143Z,1.05
2023-03-01T22:35:30.332Z,1.08
2023-03-01T22:41:17.225Z,1.38
2023-03-01T22:47:03.954Z,1.20
2023-03-01T22:52:50.662Z,1.10
2023-03-01T22:58:37.309Z,1.13
2023-03-01T23:04:24.324Z,1.45
2023-03-01T23:10:12.299Z,1.30
2023-03-01T23:15:59.237Z,1.52
2023-03-01T23:21:50.154Z,1.25
2023-03-01T23:27:38.183Z,1.08
2023-03-01T23:33:25.721Z,0.88
2023-03-01T23:39:14.130Z,1.38
2023-03-01T23:45:03.458Z,1.42
2023-03-01T23:50:50.312Z,0.82
2023-03-01T23:56:39.418Z,0.90
